Terminal Aerodrome Forecast
Issued by NWS Blacksburg, VA

Current Version | Previous Version | Text Only | Print | Product List | Glossary Off
Versions: 1 2 3 4 5 6 7 8 9 10 11 12 13 14 15 16 17 18 19 20 21 22 23 24 25 26 27 28 29 30 31 32 33 34 35 36 37 38 39 40 41 42 43 44 45

857
FTUS41 KRNK 161740
TAFBLF
TAF
KBLF 161740Z 1618/1718 18003KT P6SM SCT008 BKN040
     FM170400 17004KT P6SM OVC020
     FM170800 18005KT P6SM -RA OVC015
     FM171200 20005KT 3SM -RA BR SCT004 OVC012=

USA.gov is the U.S. government's official web portal to all federal, state and local government web resources and services.